Paso de Indios, Argentina
Current Conditions -  °F | °C
As of 4:00 AM on Saturday 29 Nov 2014 (Local Time) from SCAP Reporting Station
Clear Clear  
Wind Chill: 35°   Ceiling: Unl
Heat Index: 41°   Visibility: NA
Dew Point: 28°   Wind: 10mph
Humidity: 61%   Direction: 210°SSW
Pressure: 30.18"   Gusts: NA
Location:  43.86°S, 69.05°W
Report Text: SCAP 290700Z AUTO 21009KT 140V240 //// // NSC 05/M02 Q1022
Loading
Personal Weather Stations






























Interactive Weather Map New forecast layout! Learn more

10-Day Weather Forecast

Advertisements
Track Severe Weather on mobile